createdAt,value
2022-11-18T00:01:41.218Z,20.20
2022-11-18T00:04:14.189Z,22.03
2022-11-18T00:06:44.947Z,23.03
2022-11-18T00:09:15.339Z,24.30
2022-11-18T00:11:58.227Z,22.70
2022-11-18T00:14:29.076Z,22.57
2022-11-18T00:17:01.511Z,23.23
2022-11-18T00:19:36.443Z,21.53
2022-11-18T00:22:07.785Z,22.27
2022-11-18T00:24:37.915Z,22.23
2022-11-18T00:27:08.557Z,22.00
2022-11-18T00:29:40.214Z,24.00
2022-11-18T00:32:10.866Z,22.27
2022-11-18T00:34:44.693Z,19.30
2022-11-18T00:37:15.446Z,21.67
2022-11-18T00:39:45.732Z,21.70
2022-11-18T00:42:28.829Z,23.77
2022-11-18T00:44:59.392Z,22.77
2022-11-18T00:47:30.324Z,20.27
2022-11-18T00:50:03.231Z,22.53
2022-11-18T00:52:33.895Z,22.73
2022-11-18T00:55:04.256Z,20.80
2022-11-18T00:57:34.879Z,22.70
2022-11-18T01:00:05.337Z,21.97
2022-11-18T01:02:36.058Z,21.77
2022-11-18T01:05:09.731Z,22.47
2022-11-18T01:07:40.375Z,23.03
2022-11-18T01:10:11.438Z,22.27
2022-11-18T01:12:54.745Z,21.17
2022-11-18T01:15:25.096Z,22.90
2022-11-18T01:17:55.876Z,21.77
2022-11-18T01:20:28.851Z,21.83
2022-11-18T01:22:59.518Z,21.93
2022-11-18T01:25:30.382Z,19.77
2022-11-18T01:28:01.012Z,20.73
2022-11-18T01:30:31.279Z,20.77
2022-11-18T01:33:01.974Z,22.63
2022-11-18T01:35:37.598Z,20.93
2022-11-18T01:38:09.052Z,21.77
2022-11-18T01:40:39.979Z,20.87
2022-11-18T01:43:15.843Z,21.07
2022-11-18T01:45:48.129Z,21.37
2022-11-18T01:48:21.583Z,20.33
2022-11-18T01:50:57.234Z,20.93
2022-11-18T01:53:31.886Z,19.90
2022-11-18T01:56:06.845Z,19.30
2022-11-18T01:58:40.698Z,16.63
2022-11-18T02:01:11.477Z,17.43
2022-11-18T02:03:42.478Z,17.40
2022-11-18T02:06:16.250Z,17.67
2022-11-18T02:08:47.716Z,16.87
2022-11-18T02:11:30.870Z,16.93
2022-11-18T02:14:02.239Z,17.33
2022-11-18T02:16:47.280Z,17.10
2022-11-18T02:19:35.413Z,17.67
2022-11-18T02:22:18.771Z,17.10
2022-11-18T02:24:59.641Z,16.50
2022-11-18T02:27:59.576Z,16.77
2022-11-18T02:30:35.470Z,17.70
2022-11-18T02:33:10.938Z,17.27
2022-11-18T02:35:46.130Z,18.40
2022-11-18T02:38:22.162Z,19.37
2022-11-18T02:40:58.245Z,18.10
2022-11-18T02:43:33.028Z,19.00
2022-11-18T02:46:11.175Z,19.43
2022-11-18T02:48:46.197Z,17.77
2022-11-18T02:51:21.285Z,18.00
2022-11-18T02:53:52.711Z,18.87
2022-11-18T02:56:24.771Z,17.90
2022-11-18T02:58:54.783Z,18.93
2022-11-18T03:01:30.086Z,19.80
2022-11-18T03:04:00.137Z,20.40
2022-11-18T03:06:35.792Z,19.00
2022-11-18T03:09:15.484Z,19.40
2022-11-18T03:11:54.407Z,19.00
2022-11-18T03:14:31.673Z,19.73
2022-11-18T03:17:12.371Z,17.83
2022-11-18T03:19:57.946Z,19.50
2022-11-18T03:22:33.775Z,18.27
2022-11-18T03:25:08.287Z,16.20
2022-11-18T03:27:43.821Z,17.77
2022-11-18T03:30:18.589Z,19.03
2022-11-18T03:32:56.171Z,17.60
2022-11-18T03:35:29.531Z,17.87
2022-11-18T03:38:04.247Z,17.93
2022-11-18T03:40:38.207Z,18.23
2022-11-18T03:43:13.428Z,18.97
2022-11-18T03:45:48.383Z,18.13
2022-11-18T03:48:24.447Z,18.37
2022-11-18T03:50:59.558Z,18.10
2022-11-18T03:53:32.826Z,18.53
2022-11-18T03:56:15.776Z,18.50
2022-11-18T03:58:52.634Z,18.87
2022-11-18T04:01:28.814Z,19.53
2022-11-18T04:04:01.994Z,18.50
2022-11-18T04:06:38.794Z,19.03
2022-11-18T04:09:17.056Z,19.83
2022-11-18T04:12:03.749Z,18.90
2022-11-18T04:14:35.547Z,20.33
2022-11-18T04:17:10.596Z,18.97
2022-11-18T04:19:44.004Z,20.20
2022-11-18T04:22:14.357Z,19.87
2022-11-18T04:24:44.640Z,19.73
2022-11-18T04:27:15.218Z,20.27
2022-11-18T04:29:45.497Z,20.47
2022-11-18T04:32:15.427Z,22.37
2022-11-18T04:34:48.247Z,21.47
2022-11-18T04:37:18.178Z,19.97
2022-11-18T04:39:48.478Z,21.67
2022-11-18T04:42:18.472Z,20.13
2022-11-18T04:44:48.756Z,20.60
2022-11-18T04:47:18.710Z,20.27
2022-11-18T04:49:51.516Z,21.00
2022-11-18T04:52:21.670Z,21.70
2022-11-18T04:54:51.917Z,22.07
2022-11-18T04:57:21.980Z,22.27
2022-11-18T04:59:52.259Z,21.83
2022-11-18T05:02:22.194Z,23.37
2022-11-18T05:04:55.032Z,25.00
2022-11-18T05:07:25.084Z,22.90
2022-11-18T05:09:55.421Z,22.20
2022-11-18T05:12:37.811Z,24.00
2022-11-18T05:15:09.120Z,24.27
2022-11-18T05:17:39.091Z,24.83
2022-11-18T05:20:13.816Z,25.60
2022-11-18T05:22:43.988Z,26.53
2022-11-18T05:25:14.306Z,27.57
2022-11-18T05:27:44.297Z,28.10
2022-11-18T05:30:16.480Z,28.00
2022-11-18T05:32:46.399Z,29.17
2022-11-18T05:35:19.498Z,29.03
2022-11-18T05:37:49.468Z,29.20
2022-11-18T05:40:20.731Z,29.80
2022-11-18T05:43:03.135Z,29.37
2022-11-18T05:45:33.396Z,28.63
2022-11-18T05:48:04.639Z,29.40
2022-11-18T05:50:40.687Z,29.73
2022-11-18T05:53:10.968Z,30.27
2022-11-18T05:55:47.259Z,30.70
2022-11-18T05:58:17.634Z,27.63
2022-11-18T06:00:51.402Z,28.23
2022-11-18T06:03:30.555Z,26.90
2022-11-18T06:06:08.221Z,28.17
2022-11-18T06:08:41.930Z,27.47
2022-11-18T06:11:16.072Z,27.03
2022-11-18T06:13:50.868Z,25.10
2022-11-18T06:16:23.766Z,25.70
2022-11-18T06:18:53.896Z,23.97
2022-11-18T06:21:27.194Z,26.23
2022-11-18T06:23:57.875Z,23.90
2022-11-18T06:26:28.234Z,24.13
2022-11-18T06:28:59.525Z,22.17
2022-11-18T06:31:29.857Z,23.20
2022-11-18T06:33:59.793Z,22.93
2022-11-18T06:36:32.723Z,22.60
2022-11-18T06:39:06.193Z,22.90
2022-11-18T06:41:36.966Z,21.20
2022-11-18T06:44:04.466Z,21.97
2022-11-18T06:46:48.065Z,20.77
2022-11-18T06:49:18.266Z,20.90
2022-11-18T06:51:51.384Z,21.50
2022-11-18T06:54:21.432Z,23.10
2022-11-18T06:56:51.766Z,20.23
2022-11-18T06:59:23.933Z,22.53
2022-11-18T07:01:54.911Z,20.90
2022-11-18T07:04:24.891Z,21.17
2022-11-18T07:10:04.192Z,19.03
2022-11-18T07:12:34.517Z,20.97
2022-11-18T07:15:04.599Z,20.00
2022-11-18T07:17:35.016Z,20.77
2022-11-18T07:20:05.068Z,21.50
2022-11-18T07:22:35.548Z,21.00
2022-11-18T07:25:09.079Z,21.53
2022-11-18T07:27:39.624Z,20.93
2022-11-18T07:30:10.982Z,20.90
2022-11-18T07:32:41.209Z,21.10
2022-11-18T07:35:13.142Z,21.47
2022-11-18T07:37:43.435Z,21.57
2022-11-18T07:40:16.261Z,21.67
2022-11-18T07:42:46.671Z,21.23
2022-11-18T07:45:16.758Z,20.60
2022-11-18T07:47:47.040Z,20.63
2022-11-18T07:50:17.188Z,20.67
2022-11-18T07:52:47.513Z,20.10
2022-11-18T07:55:20.186Z,19.67
2022-11-18T07:57:50.439Z,18.33
2022-11-18T08:00:22.091Z,18.80
2022-11-18T08:02:53.057Z,19.27
2022-11-18T08:05:23.230Z,20.60
2022-11-18T08:07:53.561Z,19.47
2022-11-18T08:10:26.350Z,19.63
2022-11-18T08:12:56.932Z,19.10
2022-11-18T08:15:27.498Z,18.50
2022-11-18T08:17:58.118Z,18.63
2022-11-18T08:20:28.450Z,18.53
2022-11-18T08:22:59.126Z,19.80
2022-11-18T08:25:32.126Z,18.93
2022-11-18T08:28:02.738Z,19.17
2022-11-18T08:30:33.034Z,19.23
2022-11-18T08:33:03.893Z,20.10
2022-11-18T08:35:35.714Z,18.87
2022-11-18T08:38:06.378Z,19.87
2022-11-18T08:40:39.398Z,17.10
2022-11-18T08:43:11.920Z,20.23
2022-11-18T08:45:42.654Z,28.07
2022-11-18T08:48:13.555Z,18.73
2022-11-18T08:50:43.866Z,18.90
2022-11-18T08:53:14.562Z,18.00
2022-11-18T08:55:47.279Z,16.73
2022-11-18T08:58:17.766Z,17.70
2022-11-18T09:00:49.055Z,17.43
2022-11-18T09:03:19.658Z,17.80
2022-11-18T09:05:50.329Z,18.20
2022-11-18T09:08:21.962Z,17.70
2022-11-18T09:10:54.508Z,16.23
2022-11-18T09:13:49.883Z,17.60
2022-11-18T09:16:15.819Z,16.40
2022-11-18T09:18:55.434Z,17.87
2022-11-18T09:21:26.167Z,16.93
2022-11-18T09:23:56.425Z,17.53
2022-11-18T09:26:29.556Z,17.90
2022-11-18T09:28:59.555Z,15.80
2022-11-18T09:31:29.799Z,17.23
2022-11-18T09:34:01.822Z,16.40
2022-11-18T09:36:32.471Z,16.07
2022-11-18T09:39:02.971Z,15.43
2022-11-18T09:41:51.813Z,16.70
2022-11-18T09:44:51.351Z,17.10
2022-11-18T09:47:28.855Z,16.60
2022-11-18T09:50:10.634Z,15.67
2022-11-18T09:52:58.607Z,14.67
2022-11-18T09:55:29.034Z,15.73
2022-11-18T09:58:02.764Z,14.20
2022-11-18T10:00:33.756Z,15.47
2022-11-18T10:03:06.779Z,15.93
2022-11-18T10:05:48.113Z,15.13
2022-11-18T10:08:26.424Z,13.60
2022-11-18T10:11:04.831Z,13.13
2022-11-18T10:13:48.132Z,13.57
2022-11-18T10:16:31.765Z,13.40
2022-11-18T10:19:13.823Z,12.50
2022-11-18T10:21:57.229Z,11.00
2022-11-18T10:24:31.624Z,10.50
2022-11-18T10:27:03.554Z,10.10
2022-11-18T10:29:36.413Z,10.40
2022-11-18T10:32:10.563Z,9.77
2022-11-18T10:34:51.878Z,9.70
2022-11-18T10:37:39.087Z,10.03
2022-11-18T10:40:27.540Z,10.23
2022-11-18T10:42:57.933Z,10.87
2022-11-18T10:45:32.671Z,10.97
2022-11-18T10:48:05.828Z,11.90
2022-11-18T10:50:39.215Z,10.97
2022-11-18T10:53:31.268Z,10.00
2022-11-18T10:56:03.095Z,10.37
2022-11-18T10:58:34.932Z,10.97
2022-11-18T11:01:17.383Z,10.40
2022-11-18T11:03:58.092Z,11.07
2022-11-18T11:06:37.989Z,13.13
2022-11-18T11:09:11.664Z,10.87
2022-11-18T11:11:44.014Z,9.70
2022-11-18T11:14:22.694Z,8.37
2022-11-18T11:17:03.459Z,9.83
2022-11-18T11:19:43.928Z,9.17
2022-11-18T11:22:15.267Z,10.27
2022-11-18T11:24:45.689Z,9.30
2022-11-18T11:30:30.705Z,10.70
2022-11-18T11:33:24.848Z,9.77
2022-11-18T11:36:14.492Z,9.63
2022-11-18T11:39:04.218Z,8.90
2022-11-18T11:41:46.057Z,9.50
2022-11-18T11:44:31.429Z,9.90
2022-11-18T11:47:25.537Z,9.17
2022-11-18T11:50:04.936Z,9.77
2022-11-18T11:52:47.687Z,9.53
2022-11-18T11:55:29.609Z,9.87
2022-11-18T11:58:21.248Z,10.67
2022-11-18T12:01:01.161Z,9.67
2022-11-18T12:03:51.920Z,10.33
2022-11-18T12:06:25.412Z,10.40
2022-11-18T12:09:07.933Z,9.73
2022-11-18T12:18:48.895Z,9.67
2022-11-18T12:21:52.065Z,9.80
2022-11-18T12:24:34.668Z,9.80
2022-11-18T12:27:07.715Z,8.47
2022-11-18T12:29:44.525Z,9.30
2022-11-18T12:32:34.871Z,9.50
2022-11-18T12:35:08.595Z,9.73
2022-11-18T12:38:04.149Z,8.63
2022-11-18T12:40:54.313Z,8.87
2022-11-18T12:44:03.543Z,8.50
2022-11-18T12:46:52.774Z,8.00
2022-11-18T12:49:53.310Z,8.30
2022-11-18T12:52:54.579Z,6.47
2022-11-18T12:55:34.620Z,7.03
2022-11-18T12:58:22.831Z,7.70
2022-11-18T13:00:56.211Z,7.47
2022-11-18T13:03:29.011Z,6.93
2022-11-18T13:06:07.707Z,6.83
2022-11-18T13:08:38.898Z,7.17
2022-11-18T13:11:31.003Z,7.00
2022-11-18T13:14:17.778Z,6.23
2022-11-18T13:17:01.052Z,6.43
2022-11-18T13:19:31.296Z,6.00
2022-11-18T13:22:16.800Z,6.43
2022-11-18T13:24:49.925Z,5.70
2022-11-18T13:27:32.054Z,6.13
2022-11-18T13:30:13.678Z,6.40
2022-11-18T13:32:47.089Z,6.37
2022-11-18T13:35:21.452Z,6.67
2022-11-18T13:37:54.832Z,6.23
2022-11-18T13:40:28.462Z,5.57
2022-11-18T13:42:59.298Z,6.00
2022-11-18T13:45:33.421Z,5.50
2022-11-18T13:48:10.885Z,5.37
2022-11-18T13:50:43.607Z,4.57
2022-11-18T13:53:29.175Z,4.00
2022-11-18T13:56:02.824Z,4.40
2022-11-18T14:01:37.892Z,4.13
2022-11-18T14:04:17.873Z,4.33
2022-11-18T14:06:47.913Z,4.33
2022-11-18T14:09:28.636Z,4.00
2022-11-18T14:12:06.284Z,3.87
2022-11-18T14:14:39.046Z,3.90
2022-11-18T14:17:23.136Z,4.20
2022-11-18T14:19:56.000Z,4.13
2022-11-18T14:22:28.662Z,4.20
2022-11-18T14:25:01.865Z,4.70
2022-11-18T14:27:38.983Z,4.60
2022-11-18T14:30:32.643Z,5.30
2022-11-18T14:33:20.832Z,5.60
2022-11-18T14:35:53.816Z,6.80
2022-11-18T14:38:40.656Z,5.93
2022-11-18T14:41:42.480Z,5.83
2022-11-18T14:44:14.214Z,5.40
2022-11-18T14:46:46.906Z,5.70
2022-11-18T14:49:22.295Z,5.60
2022-11-18T14:51:54.650Z,5.13
2022-11-18T14:54:28.377Z,5.33
2022-11-18T14:57:03.268Z,5.17
2022-11-18T14:59:33.340Z,4.87
2022-11-18T15:02:03.784Z,4.97
2022-11-18T15:04:36.626Z,5.20
2022-11-18T15:07:07.210Z,4.77
2022-11-18T15:09:37.316Z,4.70
2022-11-18T15:12:08.472Z,4.83
2022-11-18T15:14:38.892Z,4.43
2022-11-18T15:17:09.240Z,4.77
2022-11-18T15:19:41.877Z,4.73
2022-11-18T15:22:12.527Z,5.23
2022-11-18T15:24:42.499Z,5.10
2022-11-18T15:27:13.019Z,5.20
2022-11-18T15:29:43.817Z,5.73
2022-11-18T15:32:14.675Z,6.17
2022-11-18T15:34:47.247Z,5.50
2022-11-18T15:37:18.130Z,5.40
2022-11-18T15:39:50.456Z,4.47
2022-11-18T15:42:23.452Z,3.87
2022-11-18T15:44:54.252Z,3.90
2022-11-18T15:47:25.259Z,4.27
2022-11-18T15:49:58.540Z,4.97
2022-11-18T15:52:30.306Z,5.07
2022-11-18T15:55:03.165Z,4.40
2022-11-18T15:57:34.399Z,4.80
2022-11-18T16:00:05.447Z,4.77
2022-11-18T16:02:35.780Z,4.70
2022-11-18T16:05:09.935Z,4.50
2022-11-18T16:07:40.732Z,4.90
2022-11-18T16:10:25.172Z,4.93
2022-11-18T16:12:55.719Z,5.90
2022-11-18T16:15:38.324Z,7.60
2022-11-18T16:18:10.107Z,6.10
2022-11-18T16:20:42.694Z,5.27
2022-11-18T16:23:13.100Z,4.80
2022-11-18T16:25:46.899Z,7.97
2022-11-18T16:28:17.368Z,4.90
2022-11-18T16:31:03.408Z,5.00
2022-11-18T16:33:33.840Z,4.83
2022-11-18T16:36:06.627Z,4.63
2022-11-18T16:38:37.132Z,4.93
2022-11-18T16:55:14.082Z,5.93
2022-11-18T16:57:44.536Z,6.50
2022-11-18T17:00:15.936Z,7.00
2022-11-18T17:03:31.447Z,6.60
2022-11-18T17:06:03.093Z,9.07
2022-11-18T17:12:24.923Z,13.00
2022-11-18T17:23:00.265Z,9.67
2022-11-18T17:25:30.737Z,12.23
2022-11-18T17:28:03.271Z,12.10
2022-11-18T17:30:33.605Z,11.50
2022-11-18T17:33:03.601Z,11.90
2022-11-18T17:35:33.843Z,13.40
2022-11-18T17:38:03.846Z,12.23
2022-11-18T17:40:34.129Z,11.50
2022-11-18T17:43:06.850Z,11.50
2022-11-18T17:45:37.343Z,12.10
2022-11-18T17:48:07.599Z,11.57
2022-11-18T17:50:37.874Z,10.97
2022-11-18T17:53:07.977Z,12.00
2022-11-18T17:56:40.498Z,11.60
2022-11-18T18:04:04.762Z,14.33
2022-11-18T18:06:35.482Z,12.57
2022-11-18T18:09:06.476Z,12.80
2022-11-18T18:11:37.018Z,11.43
2022-11-18T18:14:13.217Z,12.17
2022-11-18T18:16:46.951Z,10.90
2022-11-18T18:22:45.911Z,11.07
2022-11-18T18:25:16.691Z,12.30
2022-11-18T18:27:46.593Z,10.70
2022-11-18T18:30:17.993Z,11.23
2022-11-18T18:32:52.214Z,15.73
2022-11-18T18:35:22.949Z,14.37
2022-11-18T18:37:55.721Z,129.83
2022-11-18T18:40:26.026Z,43.20
2022-11-18T18:42:55.958Z,13.20
2022-11-18T18:45:38.713Z,12.23
2022-11-18T18:48:08.675Z,11.57
2022-11-18T18:50:38.948Z,11.40
2022-11-18T18:53:11.702Z,11.90
2022-11-18T18:55:45.027Z,11.83
2022-11-18T18:58:17.011Z,11.57
2022-11-18T19:00:47.735Z,12.83
2022-11-18T19:03:18.483Z,12.47
2022-11-18T19:06:17.461Z,11.70
2022-11-18T19:08:41.638Z,12.53
2022-11-18T19:11:32.274Z,12.43
2022-11-18T19:14:00.981Z,11.37
2022-11-18T19:16:33.592Z,11.83
2022-11-18T19:19:04.035Z,12.40
2022-11-18T19:21:36.068Z,12.30
2022-11-18T19:24:28.464Z,12.07
2022-11-18T19:27:01.057Z,12.10
2022-11-18T19:29:31.497Z,13.30
2022-11-18T19:32:02.020Z,13.40
2022-11-18T19:34:32.275Z,13.60
2022-11-18T19:37:02.667Z,13.80
2022-11-18T19:39:35.569Z,13.37
2022-11-18T19:42:06.366Z,13.67
2022-11-18T19:44:36.324Z,13.83
2022-11-18T19:47:06.709Z,14.40
2022-11-18T19:49:36.807Z,13.13
2022-11-18T19:52:07.232Z,13.80
2022-11-18T19:54:40.252Z,12.40
2022-11-18T19:57:10.967Z,13.53
2022-11-18T19:59:42.681Z,13.30
2022-11-18T20:02:14.435Z,11.63
2022-11-18T20:05:05.430Z,12.00
2022-11-18T20:07:36.186Z,12.13
2022-11-18T20:10:09.580Z,12.33
2022-11-18T20:12:40.092Z,44.73
2022-11-18T20:15:11.538Z,13.03
2022-11-18T20:17:41.931Z,12.10
2022-11-18T20:20:13.262Z,12.77
2022-11-18T20:22:44.888Z,15.87
2022-11-18T20:25:17.844Z,12.17
2022-11-18T20:27:48.551Z,11.47
2022-11-18T20:30:20.022Z,11.27
2022-11-18T20:32:50.601Z,11.80
2022-11-18T20:35:21.384Z,12.40
2022-11-18T20:37:52.007Z,12.43
2022-11-18T20:40:24.849Z,11.87
2022-11-18T20:43:07.877Z,11.97
2022-11-18T20:45:37.761Z,11.67
2022-11-18T20:48:08.535Z,12.90
2022-11-18T20:50:39.918Z,12.93
2022-11-18T20:53:10.561Z,14.63
2022-11-18T20:55:43.188Z,12.43
2022-11-18T20:58:14.499Z,12.97
2022-11-18T21:00:44.872Z,13.40
2022-11-18T21:03:15.484Z,13.20
2022-11-18T21:05:45.865Z,13.70
2022-11-18T21:15:41.509Z,13.20
2022-11-18T21:18:11.913Z,12.83
2022-11-18T21:20:54.324Z,13.23
2022-11-18T21:23:25.068Z,13.13
2022-11-18T21:25:55.246Z,12.53
2022-11-18T21:28:29.654Z,13.07
2022-11-18T21:31:02.224Z,12.10
2022-11-18T21:33:33.241Z,30.30
2022-11-18T21:36:03.203Z,149.50
2022-11-18T21:38:34.018Z,348.97
2022-11-18T21:41:05.574Z,216.57
2022-11-18T21:44:04.014Z,91.57
2022-11-18T21:46:32.313Z,21.07
2022-11-18T21:49:03.037Z,15.03
2022-11-18T21:51:34.030Z,14.30
2022-11-18T21:54:04.700Z,60.23
2022-11-18T21:56:34.878Z,18.50
2022-11-18T21:59:07.475Z,13.10
2022-11-18T22:01:40.113Z,13.13
2022-11-18T22:04:30.360Z,13.07
2022-11-18T22:07:00.397Z,13.30
2022-11-18T22:09:36.093Z,13.00
2022-11-18T22:12:08.347Z,14.03
2022-11-18T22:14:38.853Z,13.07
2022-11-18T22:17:11.598Z,13.20
2022-11-18T22:19:41.902Z,12.77
2022-11-18T22:22:11.979Z,12.87
2022-11-18T22:24:42.354Z,11.93
2022-11-18T22:27:12.336Z,12.47
2022-11-18T22:29:42.772Z,12.97
2022-11-18T22:32:15.485Z,12.33
2022-11-18T22:34:50.653Z,12.50
2022-11-18T22:37:22.036Z,13.00
2022-11-18T22:39:52.772Z,12.67
2022-11-18T22:42:35.526Z,12.20
2022-11-18T22:45:06.358Z,13.47
2022-11-18T22:47:39.199Z,13.13
2022-11-18T22:50:10.365Z,13.77
2022-11-18T22:52:41.278Z,13.10
2022-11-18T22:55:12.862Z,13.03
2022-11-18T22:57:44.500Z,13.10
2022-11-18T23:00:16.578Z,13.20
2022-11-18T23:02:49.450Z,12.53
2022-11-18T23:05:19.947Z,11.97
2022-11-18T23:07:50.241Z,12.23
2022-11-18T23:10:21.016Z,11.03
2022-11-18T23:13:03.678Z,11.37
2022-11-18T23:15:35.748Z,12.37
2022-11-18T23:18:11.525Z,11.90
2022-11-18T23:20:42.441Z,10.47
2022-11-18T23:23:12.728Z,10.40
2022-11-18T23:25:43.259Z,10.63
2022-11-18T23:28:13.467Z,9.77
2022-11-18T23:30:44.071Z,9.43
2022-11-18T23:33:16.850Z,9.43
2022-11-18T23:35:54.770Z,9.43
2022-11-18T23:38:24.662Z,8.87
2022-11-18T23:40:57.125Z,9.90
2022-11-18T23:43:27.739Z,9.37
2022-11-18T23:45:58.862Z,9.07
2022-11-18T23:48:35.369Z,9.77
2022-11-18T23:51:07.086Z,10.50
2022-11-18T23:53:38.966Z,9.97
2022-11-18T23:56:11.882Z,9.87
2022-11-18T23:58:43.424Z,10.60
